Time;durP1;ratioP1;P1;durP2;ratioP2;P2;SDS_P1;SDS_P2;PMS_P1;PMS_P2;Temp;Humidity;BMP_temperature;BMP_pressure;BME280_temperature;BME280_humidity;BME280_pressure;Samples;Min_cycle;Max_cycle;Signal;HPM_P1;HPM_P2
2021/06/06 00:01:11;;;;;;;2.83;0.97;;;17.90;99.90;;;;;;5025299;28;20312;-93
2021/06/06 00:03:44;;;;;;;4.37;1.00;;;17.60;99.90;;;;;;5009349;28;20222;-93
2021/06/06 00:06:18;;;;;;;4.70;1.10;;;17.20;99.90;;;;;;5015447;28;20248;-92
2021/06/06 00:08:49;;;;;;;5.07;1.20;;;17.10;99.90;;;;;;5019719;28;20217;-93
2021/06/06 00:11:25;;;;;;;6.47;1.50;;;17.20;99.90;;;;;;5018933;28;20190;-93
2021/06/06 00:13:58;;;;;;;3.30;1.10;;;17.20;99.90;;;;;;5016984;28;20193;-94
2021/06/06 00:16:32;;;;;;;4.67;1.53;;;17.30;99.90;;;;;;5013684;28;20226;-87
2021/06/06 00:19:03;;;;;;;3.43;1.17;;;17.20;99.90;;;;;;5008633;28;20213;-92
2021/06/06 00:21:34;;;;;;;4.53;1.10;;;17.40;99.90;;;;;;5009395;28;20234;-92
2021/06/06 00:24:06;;;;;;;2.37;0.90;;;17.30;99.90;;;;;;5012787;28;20245;-92
2021/06/06 00:26:40;;;;;;;2.60;0.90;;;17.30;99.90;;;;;;4998275;28;20320;-93
2021/06/06 00:29:11;;;;;;;5.03;1.30;;;17.20;99.90;;;;;;5000190;28;20689;-94
2021/06/06 00:31:42;;;;;;;5.47;1.53;;;17.40;99.90;;;;;;4998405;28;20301;-93
2021/06/06 00:34:13;;;;;;;4.33;1.10;;;17.70;99.90;;;;;;5000381;28;20632;-93
2021/06/06 00:36:43;;;;;;;2.80;1.57;;;18.00;99.90;;;;;;4998392;28;20293;-93
2021/06/06 00:39:14;;;;;;;5.13;1.57;;;18.20;99.90;;;;;;4997447;28;20210;-93
2021/06/06 00:41:48;;;;;;;2.77;0.97;;;18.10;99.90;;;;;;4994522;28;20667;-93
2021/06/06 00:44:21;;;;;;;3.63;1.17;;;17.60;99.90;;;;;;4978168;28;20230;-93
2021/06/06 00:46:52;;;;;;;4.83;1.60;;;17.30;99.90;;;;;;4996933;28;20245;-94
2021/06/06 00:49:23;;;;;;;4.53;1.20;;;17.50;99.90;;;;;;4997897;28;20710;-94
2021/06/06 00:51:56;;;;;;;5.67;1.60;;;17.40;99.90;;;;;;4996274;28;20211;-94
2021/06/06 00:54:30;;;;;;;2.83;1.30;;;17.10;99.90;;;;;;4996872;28;20226;-94
2021/06/06 00:57:07;;;;;;;7.10;1.97;;;16.90;99.90;;;;;;4999253;28;20230;-93
2021/06/06 00:59:40;;;;;;;4.00;1.80;;;16.70;99.90;;;;;;4997448;28;20241;-96
2021/06/06 01:02:11;;;;;;;6.67;2.37;;;16.40;99.90;;;;;;4999511;28;20255;-95
2021/06/06 01:04:44;;;;;;;3.30;1.07;;;16.20;99.90;;;;;;4998146;28;20222;-96
2021/06/06 01:07:29;;;;;;;3.80;1.00;;;16.00;99.90;;;;;;5003246;28;20202;-96
2021/06/06 01:10:01;;;;;;;3.93;1.10;;;15.70;99.90;;;;;;5018235;28;20233;-92
2021/06/06 01:12:37;;;;;;;2.20;1.03;;;15.50;99.90;;;;;;5020717;28;20210;-95
2021/06/06 01:15:15;;;;;;;3.60;1.03;;;15.60;99.90;;;;;;5002081;28;20216;-94
2021/06/06 01:17:55;;;;;;;5.93;1.23;;;15.60;99.90;;;;;;5002011;28;20300;-96
2021/06/06 01:20:38;;;;;;;2.90;1.00;;;15.40;99.90;;;;;;4995629;28;20285;-96
2021/06/06 01:23:35;;;;;;;4.20;1.03;;;15.20;99.90;;;;;;5020326;28;20228;-96
2021/06/06 01:26:13;;;;;;;5.03;1.20;;;15.00;99.90;;;;;;5000718;28;20637;-96
2021/06/06 01:29:08;;;;;;;4.40;1.40;;;14.80;99.90;;;;;;4659690;28;9999600;-96
2021/06/06 01:31:55;;;;;;;4.00;1.00;;;14.80;99.90;;;;;;5006299;28;20202;-96
2021/06/06 01:34:30;;;;;;;4.87;1.27;;;14.80;99.90;;;;;;5001311;28;20253;-94
2021/06/06 01:37:05;;;;;;;4.67;1.73;;;14.70;99.90;;;;;;4997920;28;20211;-94
2021/06/06 01:39:38;;;;;;;6.00;1.93;;;14.70;99.90;;;;;;4997940;28;20317;-94
2021/06/06 01:42:15;;;;;;;7.20;1.50;;;14.50;99.90;;;;;;5007795;28;20706;-94
2021/06/06 01:44:51;;;;;;;3.57;1.07;;;14.20;99.90;;;;;;4997847;28;20222;-92
2021/06/06 01:47:29;;;;;;;4.77;1.00;;;14.10;99.90;;;;;;5012617;28;20236;-95
2021/06/06 01:50:02;;;;;;;6.87;1.10;;;14.20;99.90;;;;;;5007009;28;20560;-93
2021/06/06 01:52:35;;;;;;;4.03;1.10;;;14.40;99.90;;;;;;5002183;28;20252;-94
2021/06/06 01:55:11;;;;;;;3.27;1.13;;;14.40;99.90;;;;;;5013470;28;20198;-96
2021/06/06 01:57:49;;;;;;;5.03;1.53;;;14.40;99.90;;;;;;5377569;23;20233;-96
2021/06/06 02:00:30;;;;;;;2.67;1.00;;;14.40;99.90;;;;;;5041031;28;20210;-95
2021/06/06 02:03:07;;;;;;;4.80;1.30;;;14.30;99.90;;;;;;5032516;28;20197;-96
2021/06/06 02:08:41;;;;;;;3.30;0.90;;;14.20;99.90;;;;;;5027320;28;20228;-96
2021/06/06 02:14:13;;;;;;;5.80;1.17;;;14.00;99.90;;;;;;6076288;23;21109;31
2021/06/06 02:16:48;;;;;;;4.80;1.10;;;14.00;99.90;;;;;;4942434;29;20679;-96
2021/06/06 02:19:34;;;;;;;4.23;1.27;;;14.00;99.90;;;;;;4922769;29;20212;-96
2021/06/06 02:22:13;;;;;;;4.83;1.30;;;13.90;99.90;;;;;;4938682;29;20200;-96
2021/06/06 02:30:29;;;;;;;5.07;2.07;;;13.60;99.90;;;;;;4993518;23;20257;-96
2021/06/06 02:33:07;;;;;;;3.30;1.20;;;13.60;99.90;;;;;;4993828;28;20217;-95
2021/06/06 02:35:53;;;;;;;4.20;1.40;;;13.60;99.90;;;;;;5008776;28;20241;-96
2021/06/06 02:38:28;;;;;;;4.67;1.37;;;13.60;99.90;;;;;;5005181;28;20218;-96
2021/06/06 02:43:53;;;;;;;4.93;1.43;;;13.40;99.90;;;;;;5020241;28;20225;-96
2021/06/06 02:46:41;;;;;;;4.77;1.20;;;13.30;99.90;;;;;;5037260;28;20236;-96
2021/06/06 02:49:28;;;;;;;5.43;1.70;;;13.30;99.90;;;;;;5025649;28;20209;-95
2021/06/06 02:52:09;;;;;;;5.10;1.50;;;13.20;99.90;;;;;;5038607;28;20196;-96
2021/06/06 02:54:49;;;;;;;6.97;2.03;;;13.20;99.90;;;;;;5033385;28;20202;-95
2021/06/06 03:00:57;;;;;;;6.33;1.37;;;13.20;99.90;;;;;;5427318;23;20229;-96
2021/06/06 03:06:13;;;;;;;4.00;1.50;;;13.10;99.90;;;;;;5995347;23;20193;-95
2021/06/06 03:08:45;;;;;;;9.23;1.73;;;13.10;99.90;;;;;;5126343;23;20243;-96
2021/06/06 03:11:23;;;;;;;4.27;1.40;;;13.00;99.90;;;;;;5029768;28;20292;-95
2021/06/06 03:13:57;;;;;;;4.20;1.60;;;13.00;99.90;;;;;;5037721;28;20661;-96
2021/06/06 03:16:35;;;;;;;5.37;1.33;;;13.00;99.90;;;;;;5041239;28;20235;-92
2021/06/06 03:19:09;;;;;;;5.30;1.43;;;13.00;99.90;;;;;;5035818;28;20213;-92
2021/06/06 03:21:44;;;;;;;4.60;1.30;;;12.80;99.90;;;;;;5036636;28;20216;-93
2021/06/06 03:24:21;;;;;;;4.33;1.50;;;12.70;99.90;;;;;;5026377;28;20217;-93
2021/06/06 03:26:53;;;;;;;5.33;1.23;;;12.60;99.90;;;;;;5041074;28;20243;-95
2021/06/06 03:29:30;;;;;;;6.83;1.77;;;12.50;99.90;;;;;;5053778;28;20236;-95
2021/06/06 03:32:09;;;;;;;5.20;1.50;;;12.60;99.90;;;;;;5053280;28;20216;-95
2021/06/06 03:34:39;;;;;;;5.03;1.57;;;12.60;99.90;;;;;;5048423;28;20208;-95
2021/06/06 03:37:16;;;;;;;6.30;1.53;;;12.60;99.90;;;;;;5043997;28;20736;-95
2021/06/06 03:39:48;;;;;;;4.67;1.33;;;12.60;99.90;;;;;;5041067;28;20213;-95
2021/06/06 03:42:23;;;;;;;5.10;1.77;;;12.60;99.90;;;;;;5040072;28;20239;-95
2021/06/06 03:44:55;;;;;;;4.10;1.33;;;12.60;99.90;;;;;;5041412;28;20220;-95
2021/06/06 03:47:30;;;;;;;8.57;1.80;;;12.60;99.90;;;;;;5045220;28;20237;-96
2021/06/06 03:50:09;;;;;;;5.90;1.30;;;12.50;99.90;;;;;;5037684;28;20221;-95
2021/06/06 03:52:48;;;;;;;5.67;1.57;;;12.50;99.90;;;;;;5033216;28;20204;-96
2021/06/06 03:58:05;;;;;;;6.37;1.60;;;12.30;99.90;;;;;;5049988;28;20231;-96
2021/06/06 04:00:42;;;;;;;6.80;1.50;;;12.20;99.90;;;;;;5045635;28;20215;-96
2021/06/06 04:03:13;;;;;;;6.20;1.67;;;12.20;99.90;;;;;;5044175;28;20201;-96
2021/06/06 04:05:44;;;;;;;8.33;1.90;;;12.20;99.90;;;;;;5038644;28;20290;-96
2021/06/06 04:08:22;;;;;;;4.70;1.63;;;12.20;99.90;;;;;;5038965;28;20248;-96
2021/06/06 04:10:53;;;;;;;6.43;1.60;;;12.20;99.90;;;;;;5037910;28;20228;-96
2021/06/06 04:13:26;;;;;;;6.33;1.70;;;12.20;99.90;;;;;;5038324;28;20598;-95
2021/06/06 04:15:57;;;;;;;5.73;1.70;;;12.20;99.90;;;;;;5036866;28;20296;-96
2021/06/06 04:18:31;;;;;;;6.43;1.53;;;12.10;99.90;;;;;;5034656;28;20225;-96
2021/06/06 04:21:07;;;;;;;5.80;1.40;;;12.10;99.90;;;;;;5032182;28;20266;-95
2021/06/06 04:23:39;;;;;;;6.17;1.57;;;12.10;99.90;;;;;;5038431;28;20521;-94
2021/06/06 04:26:10;;;;;;;5.57;1.40;;;12.00;99.90;;;;;;5037569;28;20255;-95
2021/06/06 04:28:41;;;;;;;3.80;1.30;;;11.90;99.90;;;;;;5038632;28;20209;-94
2021/06/06 04:31:13;;;;;;;4.47;1.30;;;12.00;99.90;;;;;;5037335;28;20229;-95
2021/06/06 04:33:44;;;;;;;5.73;1.50;;;12.00;99.90;;;;;;5037865;28;20296;-95
2021/06/06 04:36:14;;;;;;;4.17;1.20;;;11.90;99.90;;;;;;5044097;28;20239;-95
2021/06/06 04:38:49;;;;;;;5.20;1.43;;;11.90;99.90;;;;;;5058538;28;20635;-94
2021/06/06 04:41:29;;;;;;;6.27;1.50;;;11.80;99.90;;;;;;5030427;28;20278;-94
2021/06/06 04:44:00;;;;;;;5.53;1.30;;;11.60;99.90;;;;;;5038768;28;20213;-94
2021/06/06 04:46:32;;;;;;;5.20;1.17;;;11.70;99.90;;;;;;5052716;28;20398;-94
2021/06/06 04:49:19;;;;;;;3.70;1.20;;;11.70;99.90;;;;;;5037937;28;20200;-93
2021/06/06 04:51:50;;;;;;;7.00;1.33;;;11.60;99.90;;;;;;5038065;28;20652;-92
2021/06/06 04:54:23;;;;;;;3.50;0.90;;;11.60;99.90;;;;;;5038335;28;20229;-95
2021/06/06 04:56:54;;;;;;;4.67;1.60;;;11.70;99.90;;;;;;5037439;28;20612;-94
2021/06/06 04:59:25;;;;;;;5.10;1.30;;;11.80;99.90;;;;;;5038206;28;20262;-96
2021/06/06 05:01:57;;;;;;;3.07;1.20;;;11.80;99.90;;;;;;5036951;28;20251;-94
2021/06/06 05:04:27;;;;;;;6.17;1.57;;;11.80;99.90;;;;;;5030793;28;20316;-94
2021/06/06 05:06:57;;;;;;;6.30;1.90;;;11.80;99.90;;;;;;5035871;28;20664;-95
2021/06/06 05:09:32;;;;;;;3.57;1.40;;;11.80;99.90;;;;;;5016934;28;20550;-88
2021/06/06 05:12:02;;;;;;;4.47;1.30;;;11.50;99.90;;;;;;5025603;28;20240;-90
2021/06/06 05:14:32;;;;;;;6.27;1.20;;;11.50;99.90;;;;;;5037180;28;20245;-96
2021/06/06 05:17:04;;;;;;;6.13;1.30;;;11.50;99.90;;;;;;5037811;28;20295;-94
2021/06/06 05:19:39;;;;;;;6.30;1.60;;;11.60;99.90;;;;;;5038460;28;20283;-96
2021/06/06 05:22:13;;;;;;;4.00;1.50;;;11.70;99.90;;;;;;5019145;28;20217;-96
2021/06/06 05:24:46;;;;;;;3.77;1.00;;;11.70;99.90;;;;;;5018728;28;20228;-95
2021/06/06 05:27:17;;;;;;;5.33;1.10;;;11.70;99.90;;;;;;5020278;28;20261;-96
2021/06/06 05:29:48;;;;;;;5.00;1.40;;;11.70;99.90;;;;;;5031606;28;20212;-96
2021/06/06 05:32:19;;;;;;;4.97;1.30;;;11.60;99.90;;;;;;5041130;28;20197;-95
2021/06/06 05:34:52;;;;;;;3.23;0.93;;;11.70;99.90;;;;;;5043857;28;20374;-96
2021/06/06 05:37:36;;;;;;;3.83;1.07;;;11.60;99.90;;;;;;5065317;28;20199;-96
2021/06/06 05:40:15;;;;;;;12.70;2.17;;;11.60;99.90;;;;;;5076747;28;20234;-96
2021/06/06 05:42:48;;;;;;;5.13;1.50;;;11.80;99.90;;;;;;5057507;28;20189;-95
2021/06/06 05:45:21;;;;;;;5.27;1.47;;;11.80;99.90;;;;;;5057402;28;20185;-96
2021/06/06 05:47:51;;;;;;;3.70;1.10;;;11.80;99.90;;;;;;5057203;28;20224;-96
2021/06/06 05:50:26;;;;;;;5.10;0.90;;;11.80;99.90;;;;;;5056849;28;20192;-96
2021/06/06 05:52:56;;;;;;;5.30;1.10;;;11.70;99.90;;;;;;5056829;28;20207;-95
2021/06/06 05:55:29;;;;;;;4.67;1.37;;;11.70;99.90;;;;;;5056198;28;20217;-95
2021/06/06 05:58:00;;;;;;;2.13;1.17;;;11.80;99.90;;;;;;5062130;28;20274;-95
2021/06/06 06:00:34;;;;;;;4.67;1.23;;;11.80;99.90;;;;;;5056170;28;20203;-96
2021/06/06 06:03:07;;;;;;;5.53;1.47;;;11.60;99.90;;;;;;5040353;28;20234;-95
2021/06/06 06:05:38;;;;;;;5.97;1.40;;;11.70;99.90;;;;;;5040969;28;20229;-96
2021/06/06 06:08:16;;;;;;;5.53;1.33;;;11.80;99.90;;;;;;5046553;28;20228;-95
2021/06/06 06:10:49;;;;;;;3.20;1.37;;;11.70;99.90;;;;;;5039417;28;20259;-96
2021/06/06 06:13:23;;;;;;;2.87;1.20;;;11.80;99.90;;;;;;5044724;28;20243;-95
2021/06/06 06:15:53;;;;;;;4.70;1.20;;;11.80;99.90;;;;;;5037457;28;20229;-95
2021/06/06 06:18:26;;;;;;;4.40;1.10;;;11.80;99.90;;;;;;5037102;28;20239;-96
2021/06/06 06:20:59;;;;;;;4.80;1.03;;;11.60;99.90;;;;;;5035156;28;20635;-96
2021/06/06 06:23:30;;;;;;;8.23;1.50;;;11.50;99.90;;;;;;5041481;28;20236;-96
2021/06/06 06:26:03;;;;;;;2.87;0.80;;;11.50;99.90;;;;;;5030899;28;20213;-95
2021/06/06 06:28:33;;;;;;;3.10;0.73;;;11.50;99.90;;;;;;5032710;28;20232;-96
2021/06/06 06:31:14;;;;;;;3.60;0.97;;;11.60;99.90;;;;;;5040086;28;20217;-96
2021/06/06 06:33:47;;;;;;;6.20;1.73;;;11.40;99.90;;;;;;5041053;28;20218;-96
2021/06/06 06:36:20;;;;;;;3.47;0.73;;;11.50;99.90;;;;;;5040852;28;20224;-96
2021/06/06 06:38:52;;;;;;;5.20;1.13;;;11.40;99.90;;;;;;5040155;28;20232;-95
2021/06/06 06:41:34;;;;;;;3.83;1.00;;;11.40;99.90;;;;;;5041358;28;20229;-93
2021/06/06 06:44:04;;;;;;;4.73;1.00;;;11.30;99.90;;;;;;5032824;28;20269;-93
2021/06/06 06:46:35;;;;;;;6.30;1.00;;;11.20;99.90;;;;;;5031351;28;20229;-94
2021/06/06 06:49:09;;;;;;;4.90;0.87;;;11.20;99.90;;;;;;5033070;28;20642;-93
2021/06/06 06:51:40;;;;;;;5.40;1.77;;;11.10;99.90;;;;;;5030852;28;20271;-93
2021/06/06 06:54:10;;;;;;;7.40;1.23;;;11.10;99.90;;;;;;5031665;28;20356;-93
2021/06/06 06:56:42;;;;;;;4.40;1.13;;;11.10;99.90;;;;;;5031710;28;20212;-93
2021/06/06 06:59:13;;;;;;;8.80;1.10;;;11.20;99.90;;;;;;5030319;28;20209;-93
2021/06/06 07:01:51;;;;;;;6.00;1.23;;;11.10;99.90;;;;;;5027376;28;20213;-94
2021/06/06 07:04:22;;;;;;;6.10;1.00;;;11.10;99.90;;;;;;5031936;28;20225;-93
2021/06/06 07:06:55;;;;;;;4.20;1.00;;;11.00;99.90;;;;;;5033242;28;20296;-95
2021/06/06 07:09:27;;;;;;;5.07;1.30;;;11.00;99.90;;;;;;5033655;28;20213;-94
2021/06/06 07:11:59;;;;;;;6.30;1.20;;;11.00;99.90;;;;;;5033374;28;20249;-94
2021/06/06 07:14:30;;;;;;;7.93;1.10;;;11.00;99.90;;;;;;5034269;28;20225;-94
2021/06/06 07:17:00;;;;;;;3.70;1.10;;;11.00;99.90;;;;;;5033544;28;20439;-95
2021/06/06 07:19:30;;;;;;;5.27;1.20;;;10.90;99.90;;;;;;5035199;28;20208;-94
2021/06/06 07:22:02;;;;;;;3.80;1.30;;;11.00;99.90;;;;;;5033914;28;20232;-93
2021/06/06 07:24:33;;;;;;;5.40;1.10;;;11.00;99.90;;;;;;5035091;28;20251;-95
2021/06/06 07:27:06;;;;;;;6.83;1.23;;;10.90;99.90;;;;;;5035246;28;20301;-94
2021/06/06 07:29:36;;;;;;;6.50;1.20;;;10.90;99.90;;;;;;5032797;28;20269;-94
2021/06/06 07:32:08;;;;;;;5.73;1.27;;;10.90;99.90;;;;;;5033640;28;20235;-95
2021/06/06 07:34:39;;;;;;;3.63;1.03;;;10.90;99.90;;;;;;5033962;28;20211;-96
2021/06/06 07:37:18;;;;;;;5.43;1.20;;;10.90;99.90;;;;;;5034194;28;20212;-96
2021/06/06 07:39:49;;;;;;;3.40;1.10;;;10.90;99.90;;;;;;5033922;28;20320;-95
2021/06/06 07:42:22;;;;;;;5.60;1.73;;;10.90;99.90;;;;;;5034830;28;20228;-95
2021/06/06 07:44:52;;;;;;;6.40;1.67;;;10.90;99.90;;;;;;5036154;28;20243;-95
2021/06/06 07:47:22;;;;;;;7.37;1.87;;;11.00;99.90;;;;;;5037479;28;20224;-95
2021/06/06 07:49:54;;;;;;;6.03;1.27;;;11.00;99.90;;;;;;5034506;28;20610;-93
2021/06/06 07:52:25;;;;;;;5.83;1.30;;;10.90;99.90;;;;;;5036050;28;20511;-96
2021/06/06 07:54:56;;;;;;;6.87;1.20;;;11.00;99.90;;;;;;5035281;28;20237;-96
2021/06/06 07:57:28;;;;;;;6.47;1.03;;;10.90;99.90;;;;;;5034527;28;20643;-94
2021/06/06 08:00:00;;;;;;;6.43;1.27;;;11.00;99.90;;;;;;5033688;28;20264;-95
2021/06/06 08:02:32;;;;;;;6.50;1.17;;;10.90;99.90;;;;;;5038331;28;20209;-96
2021/06/06 08:05:03;;;;;;;8.83;1.10;;;11.00;99.90;;;;;;5052590;28;20204;-95
2021/06/06 08:07:34;;;;;;;6.10;1.33;;;11.00;99.90;;;;;;5041482;28;20237;-95
2021/06/06 08:10:07;;;;;;;5.70;1.67;;;10.90;99.90;;;;;;5043902;28;20212;-95
2021/06/06 08:12:44;;;;;;;5.97;1.20;;;10.70;99.90;;;;;;5043932;28;20209;-94
2021/06/06 08:15:15;;;;;;;4.60;1.37;;;10.60;99.90;;;;;;5035154;28;20216;-96
2021/06/06 08:17:46;;;;;;;4.33;1.17;;;10.70;99.90;;;;;;5036747;28;20205;-92
2021/06/06 08:20:20;;;;;;;5.37;1.47;;;10.60;99.90;;;;;;5035504;28;20209;-93
2021/06/06 08:22:50;;;;;;;4.97;1.17;;;10.70;99.90;;;;;;5036690;28;20201;-93
2021/06/06 08:25:22;;;;;;;5.83;1.70;;;10.60;99.90;;;;;;5033893;28;20295;-95
2021/06/06 08:27:58;;;;;;;4.57;1.10;;;10.50;99.90;;;;;;5034273;28;20735;-95
2021/06/06 08:30:33;;;;;;;6.30;1.40;;;10.60;99.90;;;;;;5033228;28;20654;-95
2021/06/06 08:33:07;;;;;;;7.10;1.43;;;10.60;99.90;;;;;;5033794;28;20605;-95
2021/06/06 08:35:54;;;;;;;4.90;1.30;;;10.60;99.90;;;;;;5033937;28;20224;-93
2021/06/06 08:41:56;;;;;;;5.53;1.57;;;10.60;99.90;;;;;;5046983;28;20211;-93
2021/06/06 08:44:31;;;;;;;8.60;1.70;;;10.70;99.90;;;;;;5038066;28;20239;-92
2021/06/06 08:47:06;;;;;;;5.50;1.83;;;10.60;99.90;;;;;;5049907;28;20208;-93
2021/06/06 08:49:40;;;;;;;6.57;1.80;;;10.60;99.90;;;;;;5046988;28;20904;-93
2021/06/06 08:52:20;;;;;;;8.53;1.83;;;10.70;99.90;;;;;;5048684;28;20698;-94
2021/06/06 08:54:58;;;;;;;3.20;1.27;;;10.60;99.90;;;;;;5048987;28;20213;-92
2021/06/06 08:57:35;;;;;;;3.83;1.20;;;10.50;99.90;;;;;;5044780;28;20224;-93
2021/06/06 09:00:14;;;;;;;6.07;1.63;;;10.50;99.90;;;;;;5044877;28;20247;-93
2021/06/06 09:02:50;;;;;;;7.47;1.50;;;10.50;99.90;;;;;;5041015;28;20227;-93
2021/06/06 09:05:28;;;;;;;4.73;1.30;;;10.60;99.90;;;;;;5037331;28;20338;-94
2021/06/06 09:08:01;;;;;;;4.90;1.47;;;10.50;99.90;;;;;;5039171;28;20308;-93
2021/06/06 09:10:35;;;;;;;5.40;1.33;;;10.50;99.90;;;;;;5039310;28;20219;-94
2021/06/06 09:13:10;;;;;;;9.53;1.40;;;10.60;99.90;;;;;;5039559;28;20232;-93
2021/06/06 09:15:42;;;;;;;10.57;1.60;;;10.50;99.90;;;;;;5042222;28;20232;-92
2021/06/06 09:18:24;;;;;;;8.47;1.40;;;10.40;99.90;;;;;;5293643;23;20328;-95
2021/06/06 09:21:11;;;;;;;7.80;1.93;;;10.40;99.90;;;;;;5021356;28;20237;-96
2021/06/06 09:23:43;;;;;;;6.93;1.70;;;10.40;99.90;;;;;;5026348;28;20223;-95
2021/06/06 09:26:26;;;;;;;7.27;1.50;;;10.40;99.90;;;;;;5018697;28;20726;-95
2021/06/06 09:29:09;;;;;;;7.30;1.60;;;10.40;99.90;;;;;;5011876;28;20621;-95
2021/06/06 09:31:41;;;;;;;7.37;1.80;;;10.40;99.90;;;;;;5011557;28;20221;-93
2021/06/06 09:34:19;;;;;;;4.93;1.37;;;10.40;99.90;;;;;;5011922;28;20301;-95
2021/06/06 09:37:06;;;;;;;7.53;1.70;;;10.40;99.90;;;;;;5011260;28;20281;-94
2021/06/06 09:39:44;;;;;;;6.83;1.33;;;10.50;99.90;;;;;;5011125;28;20296;-93
2021/06/06 09:42:30;;;;;;;5.90;1.40;;;10.60;99.90;;;;;;5010788;28;20283;-94
2021/06/06 09:45:09;;;;;;;7.13;1.63;;;10.50;99.90;;;;;;5010060;28;20667;-94
2021/06/06 09:47:42;;;;;;;7.23;1.33;;;10.40;99.90;;;;;;5009635;28;20237;-93
2021/06/06 09:50:21;;;;;;;6.23;1.60;;;10.30;99.90;;;;;;5010500;28;20752;-92
2021/06/06 09:52:52;;;;;;;6.17;1.50;;;10.20;99.90;;;;;;5010497;28;20303;-93
2021/06/06 09:55:25;;;;;;;7.13;1.50;;;10.10;99.90;;;;;;5014460;28;20340;-93
2021/06/06 09:58:10;;;;;;;5.53;1.57;;;10.10;99.90;;;;;;5010889;28;20292;-94
2021/06/06 10:00:44;;;;;;;5.13;1.90;;;10.00;99.90;;;;;;5010220;28;20321;-95
2021/06/06 10:03:28;;;;;;;8.03;1.63;;;10.10;99.90;;;;;;5012426;28;20332;-94
2021/06/06 10:06:18;;;;;;;5.30;1.33;;;10.10;99.90;;;;;;5010403;28;20205;-94
2021/06/06 10:09:00;;;;;;;10.63;1.80;;;10.10;99.90;;;;;;5010933;28;20233;-94
2021/06/06 10:11:37;;;;;;;5.93;1.87;;;10.00;99.90;;;;;;5010874;28;20712;-95
2021/06/06 10:14:08;;;;;;;7.43;1.70;;;10.00;99.90;;;;;;5011447;28;20262;-94
2021/06/06 10:16:44;;;;;;;6.90;1.50;;;10.10;99.90;;;;;;5011427;28;20252;-94
2021/06/06 10:19:21;;;;;;;4.33;1.80;;;10.20;99.90;;;;;;5012524;28;20292;-95
2021/06/06 10:21:53;;;;;;;6.87;1.50;;;10.10;99.90;;;;;;5015015;28;20236;-95
2021/06/06 10:24:30;;;;;;;5.80;1.53;;;10.10;99.90;;;;;;5015874;28;20225;-94
2021/06/06 10:27:08;;;;;;;6.63;1.53;;;10.00;99.90;;;;;;5016753;28;20232;-94
2021/06/06 10:29:43;;;;;;;4.60;1.67;;;9.90;99.90;;;;;;5035591;28;20243;-95
2021/06/06 10:32:23;;;;;;;5.27;1.40;;;9.90;99.90;;;;;;5032784;28;20212;-94
2021/06/06 10:35:03;;;;;;;7.03;1.57;;;10.00;99.90;;;;;;5025908;28;20209;-93
2021/06/06 10:37:34;;;;;;;6.03;1.37;;;9.90;99.90;;;;;;5018271;28;20247;-94
2021/06/06 10:40:10;;;;;;;7.13;1.50;;;10.00;99.90;;;;;;5032827;28;20216;-94
2021/06/06 10:42:45;;;;;;;5.90;1.43;;;9.90;99.90;;;;;;5023841;28;20343;-94
2021/06/06 10:45:22;;;;;;;7.77;1.73;;;9.90;99.90;;;;;;5019476;28;20216;-93
2021/06/06 10:47:57;;;;;;;13.67;1.73;;;9.80;99.90;;;;;;5025730;28;20250;-94
2021/06/06 10:50:37;;;;;;;8.37;1.60;;;9.80;99.90;;;;;;5022910;28;20237;-96
2021/06/06 10:53:16;;;;;;;9.30;1.60;;;9.90;99.90;;;;;;5019813;28;20246;-94
2021/06/06 10:56:04;;;;;;;9.00;2.00;;;9.80;99.90;;;;;;5022864;28;20403;-92
2021/06/06 10:58:44;;;;;;;4.87;1.50;;;9.80;99.90;;;;;;5019816;28;20225;-93
2021/06/06 11:01:26;;;;;;;5.83;1.40;;;9.80;99.90;;;;;;5019757;28;20217;-96
2021/06/06 11:04:11;;;;;;;8.03;1.60;;;9.80;99.90;;;;;;5022114;28;20205;-94
2021/06/06 11:06:46;;;;;;;6.00;1.57;;;9.90;99.90;;;;;;5022677;28;20555;-94
2021/06/06 11:09:26;;;;;;;6.93;1.50;;;9.80;99.90;;;;;;5024757;28;20323;-93
2021/06/06 11:11:59;;;;;;;6.00;1.50;;;9.80;99.90;;;;;;5023235;28;20247;-94
2021/06/06 11:14:41;;;;;;;4.67;1.70;;;9.70;99.90;;;;;;5035994;28;20262;-94
2021/06/06 11:17:17;;;;;;;6.10;1.50;;;9.80;99.90;;;;;;5039592;28;20208;-94
2021/06/06 11:19:48;;;;;;;9.50;2.03;;;9.80;99.90;;;;;;5039093;28;20220;-94
2021/06/06 11:22:34;;;;;;;7.10;1.83;;;9.70;99.90;;;;;;5039921;28;20200;-94
2021/06/06 11:25:07;;;;;;;6.53;1.60;;;9.60;99.90;;;;;;5020266;28;20205;-94
2021/06/06 11:27:57;;;;;;;4.80;1.70;;;9.70;99.90;;;;;;5020361;28;20213;-94
2021/06/06 11:30:42;;;;;;;4.50;1.70;;;9.70;99.90;;;;;;5020603;28;20215;-94
2021/06/06 11:33:16;;;;;;;6.23;1.80;;;9.80;99.90;;;;;;5031125;28;20205;-94
2021/06/06 11:35:50;;;;;;;9.60;1.57;;;9.80;99.90;;;;;;5026999;28;20221;-94
2021/06/06 11:38:42;;;;;;;6.17;1.63;;;9.80;99.90;;;;;;5028646;28;20248;-95
2021/06/06 11:41:35;;;;;;;5.40;1.47;;;9.80;99.90;;;;;;5036329;28;20217;-94
2021/06/06 11:44:30;;;;;;;10.50;1.80;;;9.80;99.90;;;;;;5048634;28;20235;-95
2021/06/06 11:47:08;;;;;;;11.70;2.33;;;9.80;99.90;;;;;;5032807;28;20213;-94
2021/06/06 11:49:52;;;;;;;7.30;1.90;;;9.80;99.90;;;;;;5033485;28;20300;-96
2021/06/06 11:52:42;;;;;;;7.00;2.20;;;9.90;99.90;;;;;;5017879;28;20220;-95
2021/06/06 11:55:23;;;;;;;5.07;1.30;;;9.80;99.90;;;;;;5018161;28;20221;-94
2021/06/06 11:57:55;;;;;;;8.27;2.00;;;9.80;99.90;;;;;;5018339;28;20235;-95
2021/06/06 12:00:32;;;;;;;7.07;1.80;;;9.70;99.90;;;;;;4997907;28;20674;-95
2021/06/06 12:03:14;;;;;;;6.30;1.80;;;9.70;99.90;;;;;;4998276;28;20321;-94
2021/06/06 12:05:58;;;;;;;8.10;1.80;;;9.60;99.90;;;;;;4998317;28;20300;-96
2021/06/06 12:08:33;;;;;;;6.80;1.57;;;9.70;99.90;;;;;;5011846;28;20261;-95
2021/06/06 12:11:09;;;;;;;6.17;1.50;;;9.60;99.90;;;;;;5017175;28;20209;-94
2021/06/06 12:13:40;;;;;;;8.43;1.83;;;9.60;99.90;;;;;;5018025;28;20240;-95
2021/06/06 12:16:14;;;;;;;9.23;1.90;;;9.60;99.90;;;;;;5016962;28;20298;-94
2021/06/06 12:18:47;;;;;;;5.13;1.67;;;9.50;99.90;;;;;;5017178;28;20543;-95
2021/06/06 12:21:20;;;;;;;8.87;2.10;;;9.60;99.90;;;;;;5016236;28;20646;-95
2021/06/06 12:23:53;;;;;;;10.00;2.00;;;9.60;99.90;;;;;;5016057;28;20205;-95
2021/06/06 12:26:30;;;;;;;13.30;2.10;;;9.60;99.90;;;;;;5017454;28;20247;-95
2021/06/06 12:29:00;;;;;;;9.17;1.83;;;9.60;99.90;;;;;;5017171;28;20733;-94
2021/06/06 12:31:33;;;;;;;7.27;1.60;;;9.60;99.90;;;;;;5016893;28;20280;-94
2021/06/06 12:34:22;;;;;;;8.47;1.80;;;9.60;99.90;;;;;;5023009;28;20610;-93
2021/06/06 12:36:58;;;;;;;5.73;1.70;;;9.60;99.90;;;;;;5035643;28;20224;-95
2021/06/06 12:39:29;;;;;;;4.67;1.67;;;9.50;99.90;;;;;;5037263;28;20239;-95
2021/06/06 12:42:03;;;;;;;7.90;1.87;;;9.60;99.90;;;;;;5026842;28;20225;-96
2021/06/06 12:44:37;;;;;;;6.10;1.93;;;9.60;99.90;;;;;;5028560;28;20197;-95
2021/06/06 12:47:09;;;;;;;8.33;1.70;;;9.70;99.90;;;;;;5037010;28;20201;-95
2021/06/06 12:49:42;;;;;;;8.87;1.80;;;9.70;99.90;;;;;;5036233;28;20225;-96
2021/06/06 12:52:24;;;;;;;7.90;2.10;;;9.70;99.90;;;;;;5028046;28;20248;-94
2021/06/06 12:54:57;;;;;;;7.67;1.87;;;9.70;99.90;;;;;;5020426;28;20212;-94
2021/06/06 12:57:34;;;;;;;8.60;1.70;;;9.70;99.90;;;;;;5019462;28;20244;-95
2021/06/06 13:00:22;;;;;;;5.10;1.70;;;9.70;99.90;;;;;;5018903;28;20244;-94
2021/06/06 13:02:53;;;;;;;5.00;1.60;;;9.70;99.90;;;;;;5017260;28;20217;-94
2021/06/06 13:05:38;;;;;;;10.23;2.13;;;9.70;99.90;;;;;;5017695;28;20233;-94
2021/06/06 13:08:24;;;;;;;8.23;2.23;;;9.70;99.90;;;;;;5016330;28;20211;-95
2021/06/06 13:10:58;;;;;;;5.90;1.47;;;9.70;99.90;;;;;;5033750;28;20243;-94
2021/06/06 13:13:36;;;;;;;12.57;1.97;;;9.80;99.90;;;;;;5035623;28;20246;-94
2021/06/06 13:16:17;;;;;;;7.47;1.60;;;9.80;99.90;;;;;;5035746;28;20348;-95
2021/06/06 13:18:58;;;;;;;8.70;1.97;;;9.70;99.90;;;;;;5025748;28;20231;-93
2021/06/06 13:21:32;;;;;;;8.07;1.80;;;9.70;99.90;;;;;;5015019;28;20292;-95
2021/06/06 13:24:16;;;;;;;7.70;1.97;;;9.70;99.90;;;;;;5016360;28;20232;-93
2021/06/06 13:26:49;;;;;;;6.07;1.97;;;9.70;99.90;;;;;;5016087;28;20295;-94
2021/06/06 13:29:32;;;;;;;5.17;1.60;;;9.80;99.90;;;;;;5015764;28;20311;-94
2021/06/06 13:32:12;;;;;;;6.80;1.90;;;9.90;99.90;;;;;;5014670;28;20212;-94
2021/06/06 13:34:43;;;;;;;7.57;1.93;;;9.90;99.90;;;;;;5016388;28;20234;-93
2021/06/06 13:37:15;;;;;;;10.60;2.00;;;9.90;99.90;;;;;;5016143;28;20217;-93
2021/06/06 13:39:48;;;;;;;8.73;1.80;;;9.90;99.90;;;;;;4997338;28;20290;-94
2021/06/06 13:42:25;;;;;;;8.43;1.90;;;9.90;99.90;;;;;;4996140;28;20237;-94
2021/06/06 13:44:57;;;;;;;7.83;1.70;;;9.80;99.90;;;;;;5009932;28;20771;-93
2021/06/06 13:47:29;;;;;;;7.00;1.97;;;9.90;99.90;;;;;;5025973;28;20221;-93
2021/06/06 13:49:59;;;;;;;9.07;1.90;;;10.00;99.90;;;;;;5016255;28;20320;-93
2021/06/06 13:52:30;;;;;;;6.80;1.73;;;10.00;99.90;;;;;;5016203;28;20213;-94
2021/06/06 13:55:01;;;;;;;9.10;2.37;;;10.00;99.90;;;;;;5033320;28;20236;-93
2021/06/06 13:57:32;;;;;;;9.60;1.80;;;9.90;99.90;;;;;;5041219;28;20235;-95